Time;durP1;ratioP1;P1;durP2;ratioP2;P2;SDS_P1;SDS_P2;PMS_P1;PMS_P2;Temp;Humidity;BMP_temperature;BMP_pressure;BME280_temperature;BME280_humidity;BME280_pressure;Samples;Min_cycle;Max_cycle;Signal;HPM_P1;HPM_P2
2021/09/24 00:02:38;;;;;;;;;;;15.90;99.90;;;;;;6219703;23;19927;-70
2021/09/24 00:08:41;;;;;;;;;;;15.90;99.90;;;;;;6197734;23;20326;-70
2021/09/24 00:11:35;;;;;;;;;;;15.90;99.90;;;;;;6220267;23;20389;-70
2021/09/24 00:14:24;;;;;;;;;;;15.90;99.90;;;;;;6219561;23;19924;-71
2021/09/24 00:17:13;;;;;;;;;;;15.90;99.90;;;;;;6212670;23;20389;-70
2021/09/24 00:20:03;;;;;;;;;;;15.80;99.90;;;;;;6218011;23;19926;-70
2021/09/24 00:22:52;;;;;;;;;;;15.80;99.90;;;;;;6221469;23;19919;-70
2021/09/24 00:25:42;;;;;;;;;;;15.80;99.90;;;;;;6219409;23;20320;-70
2021/09/24 00:28:32;;;;;;;;;;;15.80;99.90;;;;;;6219129;23;19924;-70
2021/09/24 00:31:22;;;;;;;;;;;15.80;99.90;;;;;;6209983;23;19920;-69
2021/09/24 00:34:14;;;;;;;;;;;15.80;99.90;;;;;;6197871;23;19919;-70
2021/09/24 00:37:03;;;;;;;;;;;15.80;99.90;;;;;;6219478;23;20211;-70
2021/09/24 00:39:53;;;;;;;;;;;15.70;99.90;;;;;;6198009;23;20277;-70
2021/09/24 00:42:45;;;;;;;;;;;15.70;99.90;;;;;;6219529;23;19920;-70
2021/09/24 00:45:33;;;;;;;;;;;15.70;99.90;;;;;;6210946;23;19943;-70
2021/09/24 00:48:23;;;;;;;;;;;15.60;99.90;;;;;;6218792;23;19920;-71
2021/09/24 00:51:12;;;;;;;;;;;15.60;99.90;;;;;;6218771;23;19974;-68
2021/09/24 00:54:01;;;;;;;;;;;15.60;99.90;;;;;;6219744;23;19928;-69
2021/09/24 00:56:52;;;;;;;;;;;15.60;99.90;;;;;;6219693;23;19923;-69
2021/09/24 00:59:42;;;;;;;;;;;15.60;99.90;;;;;;6219862;23;20002;-70
2021/09/24 01:02:31;;;;;;;;;;;15.60;99.90;;;;;;6219085;23;19995;-71
2021/09/24 01:05:23;;;;;;;;;;;15.50;99.90;;;;;;6215644;23;20243;-70
2021/09/24 01:08:14;;;;;;;;;;;15.50;99.90;;;;;;6218630;23;19976;-71
2021/09/24 01:11:03;;;;;;;;;;;15.50;99.90;;;;;;6219149;23;19998;-71
2021/09/24 01:13:59;;;;;;;;;;;15.50;99.90;;;;;;6218813;23;19924;-70
2021/09/24 01:16:49;;;;;;;;;;;15.50;99.90;;;;;;6211357;23;20330;-69
2021/09/24 01:20:02;;;;;;;;;;;15.40;99.90;;;;;;6218701;23;19927;-69
2021/09/24 01:22:54;;;;;;;;;;;15.40;99.90;;;;;;6220043;23;19926;-70
2021/09/24 01:25:43;;;;;;;;;;;15.30;99.90;;;;;;6219580;23;19920;-70
2021/09/24 01:28:32;;;;;;;;;;;15.30;99.90;;;;;;6196446;23;19920;-71
2021/09/24 01:31:21;;;;;;;;;;;15.30;99.90;;;;;;6190339;23;20400;-69
2021/09/24 01:34:10;;;;;;;;;;;15.30;99.90;;;;;;6217840;23;19920;-70
2021/09/24 01:36:58;;;;;;;;;;;15.20;99.90;;;;;;6217957;23;19919;-69
2021/09/24 01:39:49;;;;;;;;;;;15.20;99.90;;;;;;6218913;23;19928;-68
2021/09/24 01:42:38;;;;;;;;;;;15.20;99.90;;;;;;6196472;23;19920;-70
2021/09/24 01:45:27;;;;;;;;;;;15.20;99.90;;;;;;6210646;23;19919;-69
2021/09/24 01:48:19;;;;;;;;;;;15.20;99.90;;;;;;6218478;23;19935;-69
2021/09/24 01:51:11;;;;;;;;;;;15.20;99.90;;;;;;6220361;23;19924;-70
2021/09/24 01:54:00;;;;;;;;;;;15.20;99.90;;;;;;6218685;23;19974;-71
2021/09/24 01:56:50;;;;;;;;;;;15.10;99.90;;;;;;6217726;23;20281;-70
2021/09/24 01:59:39;;;;;;;;;;;15.10;99.90;;;;;;6195767;23;20322;-69
2021/09/24 02:02:29;;;;;;;;;;;15.10;99.90;;;;;;6214620;23;19974;-71
2021/09/24 02:05:19;;;;;;;;;;;15.10;99.90;;;;;;6219003;23;20285;-70
2021/09/24 02:08:09;;;;;;;;;;;15.10;99.90;;;;;;6218581;23;19923;-69
2021/09/24 02:10:58;;;;;;;;;;;15.10;99.90;;;;;;6215894;23;19946;-69
2021/09/24 02:13:49;;;;;;;;;;;15.10;99.90;;;;;;6217186;23;19970;-69
2021/09/24 02:16:40;;;;;;;;;;;15.20;99.90;;;;;;6187933;23;19924;-71
2021/09/24 02:19:29;;;;;;;;;;;15.20;99.90;;;;;;6219482;23;19970;-71
2021/09/24 02:22:17;;;;;;;;;;;15.20;99.90;;;;;;6217945;23;19927;-71
2021/09/24 02:25:07;;;;;;;;;;;15.10;99.90;;;;;;6197868;23;19942;-71
2021/09/24 02:27:56;;;;;;;;;;;15.10;99.90;;;;;;6216944;23;20001;-70
2021/09/24 02:30:46;;;;;;;;;;;15.00;99.90;;;;;;6210040;23;19994;-69
2021/09/24 02:33:35;;;;;;;;;;;15.00;99.90;;;;;;6197445;23;19920;-70
2021/09/24 02:36:29;;;;;;;;;;;15.10;99.90;;;;;;6218253;23;19923;-69
2021/09/24 02:39:18;;;;;;;;;;;15.00;99.90;;;;;;6217439;23;20334;-70
2021/09/24 02:42:10;;;;;;;;;;;15.00;99.90;;;;;;6217019;23;19924;-70
2021/09/24 02:44:59;;;;;;;;;;;14.90;99.90;;;;;;6218010;23;19959;-69
2021/09/24 02:47:50;;;;;;;;;;;14.80;99.90;;;;;;6217858;23;19983;-70
2021/09/24 02:50:38;;;;;;;;;;;14.80;99.90;;;;;;6194159;23;20341;-71
2021/09/24 02:53:27;;;;;;;;;;;14.80;99.90;;;;;;6216559;23;19972;-70
2021/09/24 02:56:16;;;;;;;;;;;14.70;99.90;;;;;;6216974;23;20437;-70
2021/09/24 02:59:06;;;;;;;;;;;14.70;99.90;;;;;;6218479;23;19926;-69
2021/09/24 03:01:57;;;;;;;;;;;14.70;99.90;;;;;;6210090;23;19924;-70
2021/09/24 03:04:48;;;;;;;;;;;14.70;99.90;;;;;;6195718;23;19927;-71
2021/09/24 03:07:36;;;;;;;;;;;14.60;99.90;;;;;;6217310;23;19924;-69
2021/09/24 03:10:26;;;;;;;;;;;14.60;99.90;;;;;;6218760;23;19920;-71
2021/09/24 03:13:16;;;;;;;;;;;14.60;99.90;;;;;;6217681;23;19924;-72
2021/09/24 03:16:13;;;;;;;;;;;14.50;99.90;;;;;;6187915;23;19966;-70
2021/09/24 03:19:13;;;;;;;;;;;14.60;99.90;;;;;;6195603;23;19920;-69
2021/09/24 03:22:04;;;;;;;;;;;14.50;99.90;;;;;;6217707;23;19968;-69
2021/09/24 03:24:53;;;;;;;;;;;14.60;99.90;;;;;;6219630;23;20238;-71
2021/09/24 03:28:05;;;;;;;;;;;14.60;99.90;;;;;;6217103;23;19920;-70
2021/09/24 03:30:54;;;;;;;;;;;14.60;99.90;;;;;;6211224;23;19990;-72
2021/09/24 03:33:44;;;;;;;;;;;14.50;99.90;;;;;;6217238;23;19920;-71
2021/09/24 03:36:33;;;;;;;;;;;14.50;99.90;;;;;;6218918;23;20273;-71
2021/09/24 03:39:24;;;;;;;;;;;14.50;99.90;;;;;;6197018;23;19934;-72
2021/09/24 03:42:13;;;;;;;;;;;14.50;99.90;;;;;;6217080;23;19920;-71
2021/09/24 03:45:03;;;;;;;;;;;14.40;99.90;;;;;;6216923;23;19947;-70
2021/09/24 03:47:52;;;;;;;;;;;14.50;99.90;;;;;;6216022;23;20377;-70
2021/09/24 03:50:42;;;;;;;;;;;14.40;99.90;;;;;;6215295;23;19928;-69
2021/09/24 03:53:30;;;;;;;;;;;14.40;99.90;;;;;;6215867;23;19987;-69
2021/09/24 03:56:20;;;;;;;;;;;14.40;99.90;;;;;;6217606;23;19924;-71
2021/09/24 03:59:09;;;;;;;;;;;14.40;99.90;;;;;;6216390;23;19943;-70
2021/09/24 04:01:58;;;;;;;;;;;14.40;99.90;;;;;;6208294;23;20006;-70
2021/09/24 04:04:47;;;;;;;;;;;14.40;99.90;;;;;;6215376;23;19924;-71
2021/09/24 04:07:36;;;;;;;;;;;14.40;99.90;;;;;;6217232;23;19920;-68
2021/09/24 04:10:24;;;;;;;;;;;14.40;99.90;;;;;;6218401;23;19920;-70
2021/09/24 04:13:15;;;;;;;;;;;14.30;99.90;;;;;;6216701;23;19994;-69
2021/09/24 04:16:03;;;;;;;;;;;14.30;99.90;;;;;;6209182;23;19920;-69
2021/09/24 04:18:55;;;;;;;;;;;14.30;99.90;;;;;;6218551;23;19974;-69
2021/09/24 04:21:44;;;;;;;;;;;14.30;99.90;;;;;;6217852;23;20042;-68
2021/09/24 04:24:33;;;;;;;;;;;14.30;99.90;;;;;;6218015;23;19920;-69
2021/09/24 04:27:22;;;;;;;;;;;14.30;99.90;;;;;;6217247;23;19919;-68
2021/09/24 04:30:12;;;;;;;;;;;14.30;99.90;;;;;;6212176;23;19919;-68
2021/09/24 04:33:01;;;;;;;;;;;14.40;99.90;;;;;;6219207;23;20036;-69
2021/09/24 04:35:50;;;;;;;;;;;14.40;99.90;;;;;;6198445;23;19926;-69
2021/09/24 04:38:40;;;;;;;;;;;14.40;99.90;;;;;;6219869;23;19920;-69
2021/09/24 04:41:29;;;;;;;;;;;14.40;99.90;;;;;;6216815;23;19924;-68
2021/09/24 04:44:17;;;;;;;;;;;14.50;99.90;;;;;;6219635;23;20393;-68
2021/09/24 04:47:08;;;;;;;;;;;14.50;99.90;;;;;;6190166;23;19920;-68
2021/09/24 04:49:57;;;;;;;;;;;14.50;99.90;;;;;;6196522;23;20349;-70
2021/09/24 04:52:46;;;;;;;;;;;14.50;99.90;;;;;;6216109;23;19991;-70
2021/09/24 04:55:34;;;;;;;;;;;14.60;99.90;;;;;;6218326;23;19920;-70
2021/09/24 04:58:25;;;;;;;;;;;14.60;99.90;;;;;;6219003;23;19989;-71
2021/09/24 05:04:28;;;;;;;;;;;14.60;99.90;;;;;;6198220;23;19920;-70
2021/09/24 05:07:17;;;;;;;;;;;14.60;99.90;;;;;;6218686;23;19920;-70
2021/09/24 05:10:06;;;;;;;;;;;14.60;99.90;;;;;;6218589;23;19920;-69
2021/09/24 05:12:55;;;;;;;;;;;14.60;99.90;;;;;;6218865;23;20254;-70
2021/09/24 05:15:44;;;;;;;;;;;14.60;99.90;;;;;;6211279;23;19920;-70
2021/09/24 05:18:33;;;;;;;;;;;14.60;99.90;;;;;;6217926;23;20306;-70
2021/09/24 05:21:23;;;;;;;;;;;14.60;99.90;;;;;;6217815;23;19920;-69
2021/09/24 05:24:11;;;;;;;;;;;14.60;99.90;;;;;;6195385;23;19923;-70
2021/09/24 05:27:01;;;;;;;;;;;14.70;99.90;;;;;;6219304;23;19929;-68
2021/09/24 05:29:51;;;;;;;;;;;14.70;99.90;;;;;;6217636;23;20175;-69
2021/09/24 05:32:39;;;;;;;;;;;14.70;99.90;;;;;;6193494;23;19920;-68
2021/09/24 05:35:28;;;;;;;;;;;14.70;99.90;;;;;;6197176;23;19919;-69
2021/09/24 05:38:19;;;;;;;;;;;14.70;99.90;;;;;;6219099;23;19928;-69
2021/09/24 05:41:33;;;;;;;;;;;14.70;99.90;;;;;;6219476;23;19920;-71
2021/09/24 05:44:22;;;;;;;;;;;14.70;99.90;;;;;;6197198;23;19920;-69
2021/09/24 05:47:12;;;;;;;;;;;14.60;99.90;;;;;;6212014;23;19923;-69
2021/09/24 05:50:01;;;;;;;;;;;14.60;99.90;;;;;;6218308;23;19920;-68
2021/09/24 05:52:51;;;;;;;;;;;14.60;99.90;;;;;;6217961;23;20287;-69
2021/09/24 05:55:41;;;;;;;;;;;14.60;99.90;;;;;;6216996;23;20439;-70
2021/09/24 05:58:29;;;;;;;;;;;14.50;99.90;;;;;;6218170;23;19920;-70
2021/09/24 06:01:22;;;;;;;;;;;14.50;99.90;;;;;;6209805;23;20234;-71
2021/09/24 06:04:11;;;;;;;;;;;14.60;99.90;;;;;;6209922;23;20042;-68
2021/09/24 06:07:00;;;;;;;;;;;14.60;99.90;;;;;;6217068;23;19924;-69
2021/09/24 06:13:27;;;;;;;;;;;14.70;99.90;;;;;;6217997;23;20007;-69
2021/09/24 06:16:16;;;;;;;;;;;14.70;99.90;;;;;;6209936;23;20007;-67
2021/09/24 06:19:04;;;;;;;;;;;14.70;99.90;;;;;;6216953;23;19920;-69
2021/09/24 06:21:53;;;;;;;;;;;14.70;99.90;;;;;;6218299;23;19927;-70
2021/09/24 06:24:44;;;;;;;;;;;14.70;99.90;;;;;;6216468;23;19954;-69
2021/09/24 06:27:33;;;;;;;;;;;14.70;99.90;;;;;;6216701;23;19927;-69
2021/09/24 06:30:24;;;;;;;;;;;14.70;99.90;;;;;;6188940;23;20963;-69
2021/09/24 06:33:13;;;;;;;;;;;14.70;99.90;;;;;;6218105;23;20322;-70
2021/09/24 06:36:02;;;;;;;;;;;14.70;99.90;;;;;;6218230;23;19951;-69
2021/09/24 06:38:50;;;;;;;;;;;14.70;99.90;;;;;;6216952;23;19921;-70
2021/09/24 06:41:39;;;;;;;;;;;14.70;99.90;;;;;;6215284;23;19958;-70
2021/09/24 06:44:31;;;;;;;;;;;14.70;99.90;;;;;;6217473;23;20310;-68
2021/09/24 06:47:25;;;;;;;;;;;14.70;99.90;;;;;;6209536;23;19926;-68
2021/09/24 06:50:13;;;;;;;;;;;14.70;99.90;;;;;;6218479;23;20232;-68
2021/09/24 06:53:02;;;;;;;;;;;14.70;99.90;;;;;;6217323;23;19927;-69
2021/09/24 06:55:51;;;;;;;;;;;14.70;99.90;;;;;;6217262;23;19953;-70
2021/09/24 06:58:40;;;;;;;;;;;14.70;99.90;;;;;;6215921;23;19923;-70
2021/09/24 07:01:54;;;;;;;;;;;14.70;99.90;;;;;;6210530;23;19920;-70
2021/09/24 07:04:45;;;;;;;;;;;14.70;99.90;;;;;;6195527;23;20263;-68
2021/09/24 07:07:34;;;;;;;;;;;14.70;99.90;;;;;;6215795;23;19931;-68
2021/09/24 07:10:23;;;;;;;;;;;14.70;99.90;;;;;;6195165;23;19927;-67
2021/09/24 07:13:13;;;;;;;;;;;14.80;99.90;;;;;;6216525;23;20326;-69
2021/09/24 07:16:02;;;;;;;;;;;14.80;99.90;;;;;;6210665;23;20179;-69
2021/09/24 07:18:51;;;;;;;;;;;14.80;99.90;;;;;;6186274;23;19960;-69
2021/09/24 07:21:40;;;;;;;;;;;14.80;99.90;;;;;;6188471;23;20313;-70
2021/09/24 07:24:30;;;;;;;;;;;14.80;99.90;;;;;;6187826;23;20015;-69
2021/09/24 07:27:20;;;;;;;;;;;14.80;99.90;;;;;;6186619;23;19920;-70
2021/09/24 07:30:09;;;;;;;;;;;14.80;99.90;;;;;;6178936;23;19924;-69
2021/09/24 07:33:07;;;;;;;;;;;14.80;99.90;;;;;;6186570;23;19921;-69
2021/09/24 07:35:56;;;;;;;;;;;14.80;99.90;;;;;;6186452;23;19920;-70
2021/09/24 07:38:47;;;;;;;;;;;14.90;99.90;;;;;;6187556;23;20222;-68
2021/09/24 07:41:36;;;;;;;;;;;14.80;99.90;;;;;;6188430;23;19920;-69
2021/09/24 07:44:25;;;;;;;;;;;14.90;99.90;;;;;;6189811;23;19920;-70
2021/09/24 07:47:14;;;;;;;;;;;14.90;99.90;;;;;;6181472;23;19927;-69
2021/09/24 07:50:04;;;;;;;;;;;14.90;99.90;;;;;;6188133;23;19926;-69
2021/09/24 07:52:55;;;;;;;;;;;14.90;99.90;;;;;;6187769;23;19927;-68
2021/09/24 07:55:45;;;;;;;;;;;14.90;99.90;;;;;;6188070;23;19935;-69
2021/09/24 07:58:33;;;;;;;;;;;15.00;99.90;;;;;;6190036;23;19947;-69
2021/09/24 08:01:24;;;;;;;;;;;15.00;99.90;;;;;;6182037;23;19927;-69
2021/09/24 08:04:14;;;;;;;;;;;15.00;99.90;;;;;;6188531;23;20330;-69
2021/09/24 08:07:28;;;;;;;;;;;15.10;99.90;;;;;;6189162;23;19927;-69
2021/09/24 08:10:17;;;;;;;;;;;15.10;99.90;;;;;;6188553;23;19933;-68
2021/09/24 08:13:08;;;;;;;8.63;6.32;;;15.20;99.90;;;;;;6187770;23;20389;-70
2021/09/24 08:15:58;;;;;;;10.20;6.83;;;15.30;99.90;;;;;;6177665;23;20205;-70
2021/09/24 08:18:47;;;;;;;7.10;6.13;;;15.40;99.90;;;;;;6188517;23;20385;-71
2021/09/24 08:21:41;;;;;;;9.60;6.63;;;15.50;99.90;;;;;;6189519;23;20392;-70
2021/09/24 08:24:30;;;;;;;10.37;7.57;;;15.50;99.90;;;;;;6187165;23;20388;-70
2021/09/24 08:27:19;;;;;;;10.30;6.83;;;15.50;99.90;;;;;;6187964;23;20447;-70
2021/09/24 08:30:14;;;;;;;9.20;5.90;;;15.60;99.90;;;;;;6180975;23;20388;-71
2021/09/24 08:33:04;;;;;;;6.87;5.50;;;15.70;99.90;;;;;;6186563;23;20439;-71
2021/09/24 08:35:53;;;;;;;;;;;15.70;99.90;;;;;;6187960;23;20411;-69
2021/09/24 08:38:43;;;;;;;;;;;15.70;99.90;;;;;;6186285;23;19948;-69
2021/09/24 08:41:33;;;;;;;;;;;15.80;99.90;;;;;;6186957;23;19920;-69
2021/09/24 08:44:24;;;;;;;;;;;15.80;99.90;;;;;;6189171;23;19915;-69
2021/09/24 08:47:15;;;;;;;;;;;15.90;99.90;;;;;;6178432;23;19920;-68
2021/09/24 08:50:06;;;;;;;;;;;15.90;99.90;;;;;;6188264;23;19923;-69
2021/09/24 08:52:57;;;;;;;;;;;16.00;99.90;;;;;;6187660;23;19920;-67
2021/09/24 08:55:46;;;;;;;;;;;16.00;99.90;;;;;;6187968;23;19951;-67
2021/09/24 08:58:35;;;;;;;;;;;16.10;99.90;;;;;;6188888;23;20245;-69
2021/09/24 09:01:24;;;;;;;;;;;16.20;99.90;;;;;;6181954;23;19916;-67
2021/09/24 09:04:32;;;;;;;;;;;16.20;99.90;;;;;;6189322;23;19916;-67
2021/09/24 09:07:27;;;;;;;;;;;16.30;99.90;;;;;;6188994;23;19923;-68
2021/09/24 09:10:21;;;;;;;;;;;16.30;99.90;;;;;;6189111;23;19988;-68
2021/09/24 09:13:11;;;;;;;;;;;16.40;99.90;;;;;;6188160;23;19923;-69
2021/09/24 09:16:02;;;;;;;;;;;16.50;99.90;;;;;;6158427;23;20326;-68
2021/09/24 09:19:04;;;;;;;;;;;16.50;99.90;;;;;;6187808;23;19924;-68
2021/09/24 09:21:54;;;;;;;;;;;16.50;99.90;;;;;;6186218;23;20315;-72
2021/09/24 09:24:44;;;;;;;;;;;16.60;99.90;;;;;;6167283;23;19923;-69
2021/09/24 09:27:59;;;;;;;;;;;16.60;99.90;;;;;;6186846;23;20382;-68
2021/09/24 09:30:49;;;;;;;;;;;16.70;99.90;;;;;;6180060;23;19960;-68
2021/09/24 09:33:38;;;;;;;;;;;16.70;99.90;;;;;;6188831;23;20374;-68
2021/09/24 09:36:28;;;;;;;;;;;16.80;99.90;;;;;;6188542;23;19923;-68
2021/09/24 09:39:19;;;;;;;;;;;16.80;99.90;;;;;;6190290;23;19968;-68
2021/09/24 09:42:15;;;;;;;;;;;16.90;99.90;;;;;;6189382;23;19951;-69
2021/09/24 09:45:30;;;;;;;8.67;6.87;;;16.90;99.90;;;;;;6179318;23;20395;-71
2021/09/24 09:48:24;;;;;;;8.33;6.37;;;17.00;99.90;;;;;;6189403;23;20388;-70
2021/09/24 09:51:21;;;;;;;6.83;5.80;;;17.00;99.90;;;;;;6188708;23;20407;-70
2021/09/24 09:54:13;;;;;;;9.13;6.33;;;17.00;99.90;;;;;;6187484;23;20388;-70
2021/09/24 09:57:13;;;;;;;10.77;7.00;;;17.10;99.90;;;;;;6188959;23;20386;-70
2021/09/24 10:00:02;;;;;;;9.83;6.47;;;17.20;99.90;;;;;;6185279;23;20388;-70
2021/09/24 10:03:05;;;;;;;6.20;5.60;;;17.20;99.90;;;;;;6187079;23;20490;-71
2021/09/24 10:05:55;;;;;;;8.40;6.27;;;17.30;99.90;;;;;;6186004;23;20392;-71
2021/09/24 10:08:44;;;;;;;11.50;6.10;;;17.40;99.90;;;;;;6188526;23;20431;-70
2021/09/24 10:11:35;;;;;;;6.67;5.37;;;17.50;99.90;;;;;;6188503;23;20394;-71
2021/09/24 10:14:25;;;;;;;6.53;5.60;;;17.50;99.90;;;;;;6191707;23;20386;-70
2021/09/24 10:17:15;;;;;;;7.40;6.10;;;17.70;99.90;;;;;;6176020;23;20489;-70
2021/09/24 10:20:08;;;;;;;8.40;6.10;;;17.70;99.90;;;;;;6195905;23;20392;-69
2021/09/24 10:22:56;;;;;;;10.70;6.80;;;17.70;99.90;;;;;;6216529;23;20394;-69
2021/09/24 10:25:50;;;;;;;8.13;6.10;;;17.70;99.90;;;;;;6216313;23;20419;-69
2021/09/24 10:28:41;;;;;;;8.10;7.30;;;17.80;99.90;;;;;;6217263;23;20466;-69
2021/09/24 10:31:36;;;;;;;8.87;6.20;;;17.80;99.90;;;;;;6209124;23;20454;-70
2021/09/24 10:34:30;;;;;;;9.20;5.07;;;17.80;99.90;;;;;;6217171;23;20715;-72
2021/09/24 10:37:20;;;;;;;5.47;4.97;;;17.80;99.90;;;;;;6217334;23;20395;-70
2021/09/24 10:40:27;;;;;;;5.53;4.27;;;17.90;99.90;;;;;;6217932;23;20384;-70
2021/09/24 10:43:23;;;;;;;5.47;4.83;;;17.90;99.90;;;;;;6215829;23;20385;-69
2021/09/24 10:46:34;;;;;;;6.00;4.47;;;18.00;99.90;;;;;;6210280;23;20481;-69
2021/09/24 10:49:33;;;;;;;6.23;3.83;;;18.10;99.90;;;;;;6218523;23;20383;-69
2021/09/24 10:52:39;;;;;;;5.60;4.20;;;18.20;99.90;;;;;;6214874;23;20435;-70
2021/09/24 10:55:29;;;;;;;5.33;4.10;;;18.30;99.90;;;;;;6193560;23;20393;-70
2021/09/24 10:58:38;;;;;;;4.60;4.20;;;18.30;99.90;;;;;;6215889;23;20470;-69
2021/09/24 11:01:40;;;;;;;4.10;3.03;;;18.40;99.90;;;;;;6206859;23;20430;-69
2021/09/24 11:04:47;;;;;;;5.73;3.77;;;18.50;99.90;;;;;;6217553;23;20398;-69
2021/09/24 11:11:03;;;;;;;3.63;3.23;;;18.60;99.90;;;;;;6217747;23;20395;-70
2021/09/24 11:13:59;;;;;;;3.67;3.30;;;18.60;99.90;;;;;;6217532;23;20439;-70
2021/09/24 11:16:50;;;;;;;4.10;3.73;;;18.70;99.90;;;;;;6209417;23;20830;-70
2021/09/24 11:19:43;;;;;;;4.00;3.70;;;18.70;99.90;;;;;;6219739;23;20393;-70
2021/09/24 11:22:39;;;;;;;3.00;2.77;;;18.70;99.90;;;;;;6219220;23;20383;-71
2021/09/24 11:25:30;;;;;;;6.20;3.23;;;18.70;99.90;;;;;;6217421;23;20387;-70
2021/09/24 11:28:35;;;;;;;3.30;3.00;;;18.70;99.90;;;;;;6219037;23;20383;-70
2021/09/24 11:32:09;;;;;;;3.40;3.10;;;18.80;99.90;;;;;;6210310;23;20513;-70
2021/09/24 11:34:58;;;;;;;4.43;3.30;;;18.80;99.90;;;;;;6195561;23;20462;-71
2021/09/24 11:37:50;;;;;;;4.13;3.47;;;18.80;99.90;;;;;;6219508;23;20708;-70
2021/09/24 11:40:41;;;;;;;4.47;3.70;;;18.90;99.90;;;;;;6220561;23;20383;-70
2021/09/24 11:43:33;;;;;;;3.77;3.47;;;19.00;99.90;;;;;;6220156;23;20705;-70
2021/09/24 11:46:26;;;;;;;6.43;3.57;;;19.00;99.90;;;;;;6214709;23;20427;-70
2021/09/24 11:49:16;;;;;;;3.90;3.60;;;19.00;99.90;;;;;;6218124;23;20391;-70
2021/09/24 11:52:07;;;;;;;5.55;3.80;;;19.10;99.90;;;;;;6219095;23;20486;-70
2021/09/24 11:55:08;;;;;;;;;;;19.10;99.90;;;;;;6220455;23;19920;-70
2021/09/24 11:58:01;;;;;;;;;;;19.10;99.90;;;;;;6221240;23;19990;-69
2021/09/24 12:00:51;;;;;;;;;;;19.10;99.90;;;;;;6213742;23;19920;-70
2021/09/24 12:03:40;;;;;;;;;;;19.20;99.90;;;;;;6221239;23;19923;-67
2021/09/24 12:06:37;;;;;;;;;;;19.30;99.90;;;;;;6219341;23;19920;-67
2021/09/24 12:09:26;;;;;;;;;;;19.30;99.90;;;;;;6220880;23;20230;-67
2021/09/24 12:12:20;;;;;;;;;;;19.40;99.90;;;;;;6219784;23;19990;-68
2021/09/24 12:15:13;;;;;;;;;;;19.40;99.90;;;;;;6211945;23;19924;-68
2021/09/24 12:18:02;;;;;;;;;;;19.50;99.90;;;;;;6218952;23;19920;-68
2021/09/24 12:20:58;;;;;;;;;;;19.40;99.90;;;;;;6219971;23;19920;-68
2021/09/24 12:23:49;;;;;;;;;;;19.50;99.90;;;;;;6218268;23;19920;-68
2021/09/24 12:26:39;;;;;;;;;;;19.50;99.90;;;;;;6218931;23;19924;-67
2021/09/24 12:29:29;;;;;;;;;;;19.60;99.90;;;;;;6219196;23;19920;-67
2021/09/24 12:32:18;;;;;;;;;;;19.70;99.90;;;;;;6212876;23;19974;-68
2021/09/24 12:35:12;;;;;;;;;;;19.70;99.90;;;;;;6218939;23;19924;-67
2021/09/24 12:38:01;;;;;;;;;;;19.60;99.90;;;;;;6218612;23;19920;-69
2021/09/24 12:43:50;;;;;;;;;;;19.70;99.90;;;;;;5143031;27;19915;-70
2021/09/24 12:46:40;;;;;;;;;;;19.70;99.90;;;;;;5096582;27;19924;-67
2021/09/24 12:49:30;;;;;;;;;;;19.70;99.90;;;;;;5090530;28;19925;-67
2021/09/24 12:52:24;;;;;;;;;;;19.60;99.90;;;;;;5088818;28;19925;-72
2021/09/24 12:55:17;;;;;;;;;;;19.70;99.90;;;;;;5083035;28;20007;-67
2021/09/24 12:58:07;;;;;;;;;;;19.70;99.90;;;;;;5082243;28;19924;-70
2021/09/24 13:00:58;;;;;;;;;;;19.70;99.90;;;;;;5082195;28;19924;-67
2021/09/24 13:03:47;;;;;;;;;;;19.70;99.90;;;;;;5086341;28;19954;-66
2021/09/24 13:06:39;;;;;;;;;;;19.70;99.90;;;;;;5083744;28;20752;-66
2021/09/24 13:09:29;;;;;;;;;;;19.70;99.90;;;;;;5077808;28;19931;-67
2021/09/24 13:12:18;;;;;;;;;;;19.70;99.90;;;;;;5089361;28;19936;-67
2021/09/24 13:15:08;;;;;;;;;;;19.70;99.90;;;;;;5079789;28;19936;-66
2021/09/24 13:18:03;;;;;;;;;;;19.80;99.90;;;;;;5106314;28;19924;-69
2021/09/24 13:20:53;;;;;;;;;;;19.70;99.90;;;;;;5111677;28;19927;-68
2021/09/24 13:23:45;;;;;;;;;;;19.80;99.90;;;;;;5102160;28;19928;-68
2021/09/24 13:26:34;;;;;;;;;;;19.80;99.90;;;;;;5093890;28;19924;-68
2021/09/24 13:29:23;;;;;;;;;;;19.80;99.90;;;;;;5104946;28;20331;-68
2021/09/24 13:32:14;;;;;;;;;;;19.80;99.90;;;;;;5103640;28;19981;-68
2021/09/24 13:35:04;;;;;;;;;;;19.80;99.90;;;;;;5103564;28;19923;-68
2021/09/24 13:37:54;;;;;;;;;;;19.80;99.90;;;;;;5102074;28;19938;-68
2021/09/24 13:40:43;;;;;;;;;;;19.80;99.90;;;;;;5112029;28;20002;-68
2021/09/24 13:43:33;;;;;;;3.97;3.55;;;19.80;99.90;;;;;;5096555;28;20421;-69
2021/09/24 13:46:23;;;;;;;6.60;3.00;;;19.70;99.90;;;;;;5101849;28;20229;-70
2021/09/24 13:49:12;;;;;;;3.30;3.00;;;19.80;99.90;;;;;;5099566;28;20436;-69
2021/09/24 13:52:04;;;;;;;4.20;3.73;;;19.80;99.90;;;;;;5094776;28;20600;-70
2021/09/24 13:54:53;;;;;;;4.17;3.00;;;19.90;99.90;;;;;;5092875;28;20421;-69
2021/09/24 13:57:43;;;;;;;3.80;3.37;;;19.90;99.90;;;;;;5092013;28;20493;-70
2021/09/24 14:00:32;;;;;;;4.40;3.70;;;19.90;99.90;;;;;;5076911;28;20468;-70
2021/09/24 14:03:23;;;;;;;5.93;3.73;;;20.00;99.90;;;;;;5089077;28;21123;-69
2021/09/24 14:06:14;;;;;;;5.03;3.37;;;20.00;99.90;;;;;;5084321;28;20440;-69
2021/09/24 14:09:08;;;;;;;494.57;467.73;;;20.00;99.90;;;;;;5100093;28;20420;-69
2021/09/24 14:11:58;;;;;;;1043.85;968.78;;;20.00;99.90;;;;;;5080130;28;20472;-71
2021/09/24 14:14:47;;;;;;;1018.20;943.58;;;20.00;99.90;;;;;;5097161;28;20396;-70
2021/09/24 14:17:38;;;;;;;1046.40;971.20;;;20.00;99.90;;;;;;5094469;28;20461;-69
2021/09/24 14:20:27;;;;;;;1056.57;980.67;;;20.00;99.90;;;;;;5072501;28;20521;-69
2021/09/24 14:23:16;;;;;;;1048.90;973.60;;;20.00;99.90;;;;;;5073744;28;20407;-69
2021/09/24 14:26:13;;;;;;;1058.85;982.55;;;20.00;99.90;;;;;;5072286;28;20411;-69
2021/09/24 14:29:03;;;;;;;1057.55;981.33;;;20.00;99.90;;;;;;5089234;28;20462;-69
2021/09/24 14:31:54;;;;;;;1048.53;973.20;;;20.10;99.90;;;;;;5083277;28;20877;-69
2021/09/24 14:34:43;;;;;;;1056.47;980.88;;;20.10;99.90;;;;;;5096392;28;20481;-70
2021/09/24 14:37:33;;;;;;;1064.28;988.53;;;20.10;99.90;;;;;;5086948;28;20758;-69
2021/09/24 14:40:26;;;;;;;1112.00;999.90;;;20.10;99.90;;;;;;5076265;28;20409;-70
2021/09/24 14:43:17;;;;;;;1100.33;999.90;;;20.10;99.90;;;;;;5064150;28;20443;-69
2021/09/24 14:46:12;;;;;;;1077.90;999.90;;;20.20;99.90;;;;;;5072094;28;20414;-68
2021/09/24 14:49:02;;;;;;;1101.43;999.90;;;20.30;99.90;;;;;;5085969;28;20545;-69
2021/09/24 14:51:51;;;;;;;1120.90;999.90;;;20.40;99.90;;;;;;5071880;28;20422;-69
2021/09/24 14:54:40;;;;;;;1146.97;999.90;;;20.50;99.90;;;;;;5076013;28;20435;-69
2021/09/24 14:57:30;;;;;;;1183.23;999.90;;;20.50;99.90;;;;;;5076108;28;20451;-69
2021/09/24 15:00:20;;;;;;;1233.43;999.90;;;20.40;99.90;;;;;;5075398;28;20411;-70
2021/09/24 15:03:09;;;;;;;1237.93;999.90;;;20.40;99.90;;;;;;5087547;28;20393;-68
2021/09/24 15:05:59;;;;;;;1238.55;999.90;;;20.40;99.90;;;;;;5070631;28;20990;-68
2021/09/24 15:08:49;;;;;;;1224.88;999.90;;;20.40;99.90;;;;;;5083416;28;20961;-67
2021/09/24 15:11:38;;;;;;;1240.35;999.90;;;20.50;99.90;;;;;;5090168;28;20428;-69
2021/09/24 15:14:28;;;;;;;1207.60;999.90;;;20.50;99.90;;;;;;5090623;28;20499;-66
2021/09/24 15:17:19;;;;;;;1206.78;999.90;;;20.50;99.90;;;;;;5084985;28;20406;-68
2021/09/24 15:20:10;;;;;;;1199.93;999.90;;;20.50;99.90;;;;;;5066992;28;20518;-68
2021/09/24 15:22:59;;;;;;;1211.05;999.90;;;20.50;99.90;;;;;;5096861;28;20487;-68
2021/09/24 15:25:49;;;;;;;1214.40;999.90;;;20.50;99.90;;;;;;5083363;28;21020;-69
2021/09/24 15:28:38;;;;;;;1204.77;999.90;;;20.50;99.90;;;;;;5088760;28;20412;-69
2021/09/24 15:31:28;;;;;;;1205.77;999.90;;;20.50;99.90;;;;;;5062944;28;20420;-69
2021/09/24 15:34:18;;;;;;;1207.33;999.90;;;20.50;99.90;;;;;;5092159;28;20410;-72
2021/09/24 15:37:13;;;;;;;1201.95;999.90;;;20.50;99.90;;;;;;5085621;28;20503;-71
2021/09/24 15:40:03;;;;;;;1213.47;999.90;;;20.50;99.90;;;;;;5097615;28;20400;-71
2021/09/24 15:42:53;;;;;;;1202.85;999.90;;;20.50;99.90;;;;;;5097551;28;20544;-69
2021/09/24 15:45:42;;;;;;;1201.53;999.90;;;20.50;99.90;;;;;;5069475;28;20471;-73
2021/09/24 15:48:31;;;;;;;1206.15;999.90;;;20.50;99.90;;;;;;5068178;28;20931;-69
2021/09/24 15:51:22;;;;;;;1233.75;999.90;;;20.50;99.90;;;;;;5068044;28;20400;-69
2021/09/24 15:54:12;;;;;;;1217.15;999.90;;;20.50;99.90;;;;;;5091259;28;20428;-69
2021/09/24 15:57:26;;;;;;;1211.78;999.90;;;20.50;99.90;;;;;;5089098;28;20457;-69
2021/09/24 16:00:15;;;;;;;1208.53;999.90;;;20.40;99.90;;;;;;5066759;28;20427;-69
2021/09/24 16:03:05;;;;;;;1201.07;999.90;;;20.40;99.90;;;;;;5084384;28;20491;-69
2021/09/24 16:05:56;;;;;;;1202.68;999.90;;;20.30;99.90;;;;;;5091891;28;20489;-69
2021/09/24 16:08:46;;;;;;;1198.60;999.90;;;20.30;99.90;;;;;;5084587;28;20394;-71
2021/09/24 16:11:36;;;;;;;1192.35;999.90;;;20.30;99.90;;;;;;5076947;28;20822;-69